Time;durP1;ratioP1;P1;durP2;ratioP2;P2;SDS_P1;SDS_P2;PMS_P1;PMS_P2;Temp;Humidity;BMP_temperature;BMP_pressure;BME280_temperature;BME280_humidity;BME280_pressure;Samples;Min_cycle;Max_cycle;Signal;HPM_P1;HPM_P2
2022/10/30 00:00:35;;;;;;;10.07;3.90;;;16.10;99.90;;;;;;5006776;28;20111;-67
2022/10/30 00:03:00;;;;;;;12.63;4.15;;;16.10;99.90;;;;;;5005550;28;20599;-65
2022/10/30 00:05:26;;;;;;;6.78;3.65;;;16.10;99.90;;;;;;5006367;28;20042;-66
2022/10/30 00:07:54;;;;;;;19.27;4.03;;;16.10;99.90;;;;;;5008064;28;20033;-66
2022/10/30 00:10:19;;;;;;;11.00;4.55;;;16.10;99.90;;;;;;5006590;28;20113;-67
2022/10/30 00:12:45;;;;;;;8.57;4.13;;;16.10;99.90;;;;;;4961272;28;20133;-66
2022/10/30 00:15:11;;;;;;;27.08;4.68;;;16.10;99.90;;;;;;4999635;28;20396;-66
2022/10/30 00:17:37;;;;;;;14.70;4.38;;;16.10;99.90;;;;;;5008546;28;20150;-66
2022/10/30 00:20:03;;;;;;;11.38;4.32;;;16.10;99.90;;;;;;5010505;28;20085;-67
2022/10/30 00:22:29;;;;;;;19.58;4.97;;;16.10;99.90;;;;;;5006975;28;20014;-65
2022/10/30 00:24:54;;;;;;;7.65;3.42;;;16.10;99.90;;;;;;5007800;28;20048;-67
2022/10/30 00:27:20;;;;;;;10.10;4.55;;;16.00;99.90;;;;;;5004903;28;20050;-67
2022/10/30 00:29:45;;;;;;;14.55;3.60;;;15.90;99.90;;;;;;5009242;28;20053;-65
2022/10/30 00:32:11;;;;;;;10.77;4.30;;;15.90;99.90;;;;;;5007746;28;20034;-66
2022/10/30 00:34:36;;;;;;;9.40;4.38;;;15.90;99.90;;;;;;5002928;28;20017;-66
2022/10/30 00:37:02;;;;;;;10.85;3.90;;;15.90;99.90;;;;;;5006114;28;20036;-67
2022/10/30 00:39:28;;;;;;;7.72;3.78;;;15.90;99.90;;;;;;5002463;28;20033;-66
2022/10/30 00:41:53;;;;;;;11.57;4.15;;;15.90;99.90;;;;;;5006436;28;20524;-67
2022/10/30 00:44:39;;;;;;;12.57;5.20;;;15.80;99.90;;;;;;5000993;28;20022;-66
2022/10/30 00:47:19;;;;;;;14.20;4.70;;;15.80;99.90;;;;;;5003238;28;20057;-67
2022/10/30 00:49:54;;;;;;;10.43;4.43;;;15.70;99.90;;;;;;5009087;28;20025;-66
2022/10/30 00:52:22;;;;;;;16.00;4.85;;;15.70;99.90;;;;;;5003093;28;20137;-67
2022/10/30 00:54:48;;;;;;;9.13;4.00;;;15.70;99.90;;;;;;5008657;28;20029;-67
2022/10/30 00:57:14;;;;;;;14.30;4.43;;;15.70;99.90;;;;;;5005926;28;20030;-66
2022/10/30 00:59:41;;;;;;;14.05;3.90;;;15.60;99.90;;;;;;5006411;28;20133;-67
2022/10/30 01:02:07;;;;;;;14.82;3.90;;;15.60;99.90;;;;;;5006124;28;20412;-66
2022/10/30 01:04:36;;;;;;;11.52;4.15;;;15.50;99.90;;;;;;5004849;28;20123;-66
2022/10/30 01:07:08;;;;;;;11.63;4.45;;;15.40;99.90;;;;;;5008944;28;20555;-66
2022/10/30 01:09:35;;;;;;;6.50;4.13;;;15.40;99.90;;;;;;5006691;28;20026;-66
2022/10/30 01:12:00;;;;;;;21.42;4.40;;;15.40;99.90;;;;;;5005179;28;20084;-66
2022/10/30 01:14:26;;;;;;;12.65;4.70;;;15.30;99.90;;;;;;4977983;28;20077;-66
2022/10/30 01:17:24;;;;;;;11.25;4.20;;;15.30;99.90;;;;;;4990036;28;20452;-66
2022/10/30 01:20:16;;;;;;;12.73;4.03;;;15.20;99.90;;;;;;5006996;28;20041;-66
2022/10/30 01:23:06;;;;;;;13.70;4.30;;;15.20;99.90;;;;;;4999239;28;20049;-66
2022/10/30 01:25:52;;;;;;;11.15;4.60;;;15.10;99.90;;;;;;5002385;28;20087;-66
2022/10/30 01:28:32;;;;;;;12.25;3.97;;;15.10;99.90;;;;;;5006353;28;20034;-66
2022/10/30 01:31:26;;;;;;;11.48;4.47;;;15.00;99.90;;;;;;5001287;28;20026;-66
2022/10/30 01:34:12;;;;;;;13.55;4.88;;;14.90;99.90;;;;;;5007254;28;20034;-65
2022/10/30 01:36:59;;;;;;;8.80;4.57;;;14.80;99.90;;;;;;5003404;28;20117;-66
2022/10/30 01:39:27;;;;;;;14.32;4.68;;;14.70;99.90;;;;;;5001857;28;20029;-66
2022/10/30 01:41:53;;;;;;;13.30;5.68;;;14.60;99.90;;;;;;5000945;28;20130;-65
2022/10/30 01:44:29;;;;;;;9.85;5.13;;;14.60;99.90;;;;;;5000336;28;20129;-66
2022/10/30 01:47:03;;;;;;;9.75;4.30;;;14.60;99.90;;;;;;5005378;28;20022;-67
2022/10/30 01:49:50;;;;;;;10.88;5.25;;;14.60;99.90;;;;;;4999415;28;20026;-67
2022/10/30 01:53:17;;;;;;;18.80;5.18;;;14.50;99.90;;;;;;5006120;28;20076;-67
2022/10/30 01:56:21;;;;;;;10.63;4.70;;;14.50;99.90;;;;;;4932459;28;20046;-67
2022/10/30 01:59:12;;;;;;;13.63;4.65;;;14.50;99.90;;;;;;4942722;28;20060;-67
2022/10/30 02:01:38;;;;;;;12.05;3.80;;;14.50;99.90;;;;;;4996461;28;20041;-67
2022/10/30 02:04:06;;;;;;;11.85;4.70;;;14.50;99.90;;;;;;5003698;28;20029;-67
2022/10/30 02:06:31;;;;;;;11.70;4.55;;;14.50;99.90;;;;;;5006772;28;20120;-67
2022/10/30 02:08:57;;;;;;;16.77;4.38;;;14.50;99.90;;;;;;5006021;28;20697;-67
2022/10/30 02:11:26;;;;;;;10.90;5.43;;;14.50;99.90;;;;;;5005150;28;20034;-66
2022/10/30 02:13:55;;;;;;;11.45;5.38;;;14.50;99.90;;;;;;4999065;28;20033;-66
2022/10/30 02:16:21;;;;;;;16.98;4.63;;;14.50;99.90;;;;;;4992548;28;20045;-66
2022/10/30 02:18:47;;;;;;;9.23;4.03;;;14.50;99.90;;;;;;5004427;28;20032;-66
2022/10/30 02:21:12;;;;;;;10.57;4.85;;;14.50;99.90;;;;;;5007928;28;20109;-67
2022/10/30 02:23:38;;;;;;;13.23;5.20;;;14.50;99.90;;;;;;5006565;28;20026;-67
2022/10/30 02:26:04;;;;;;;12.82;4.72;;;14.40;99.90;;;;;;5007603;28;20482;-66
2022/10/30 02:28:30;;;;;;;11.82;4.53;;;14.30;99.90;;;;;;5012346;28;20022;-66
2022/10/30 02:30:55;;;;;;;9.52;5.40;;;14.30;99.90;;;;;;4995268;28;20076;-66
2022/10/30 02:33:23;;;;;;;9.82;4.32;;;14.30;99.90;;;;;;5008774;28;20113;-66
2022/10/30 02:35:49;;;;;;;17.77;5.43;;;14.30;99.90;;;;;;5009787;28;20021;-67
2022/10/30 02:38:14;;;;;;;15.18;5.38;;;14.40;99.90;;;;;;5011611;28;20033;-67
2022/10/30 02:40:40;;;;;;;10.60;4.82;;;14.40;99.90;;;;;;5003309;28;20030;-67
2022/10/30 02:43:05;;;;;;;15.25;4.55;;;14.40;99.90;;;;;;5010266;28;20148;-68
2022/10/30 02:45:31;;;;;;;14.77;5.13;;;14.30;99.90;;;;;;5010400;28;20034;-67
2022/10/30 02:47:59;;;;;;;15.20;4.80;;;14.30;99.90;;;;;;5011256;28;20038;-66
2022/10/30 02:50:25;;;;;;;11.25;5.03;;;14.20;99.90;;;;;;5011188;28;20049;-67
2022/10/30 02:52:51;;;;;;;12.10;4.50;;;14.10;99.90;;;;;;5010962;28;20040;-67
2022/10/30 02:55:17;;;;;;;11.63;4.53;;;14.00;99.90;;;;;;5010768;28;20026;-67
2022/10/30 02:57:43;;;;;;;14.00;5.35;;;14.00;99.90;;;;;;5010795;28;20045;-67
2022/10/30 03:00:09;;;;;;;16.52;5.60;;;13.90;99.90;;;;;;5009671;28;20492;-66
2022/10/30 03:02:35;;;;;;;9.85;5.38;;;13.90;99.90;;;;;;5010078;28;20038;-67
2022/10/30 03:05:00;;;;;;;13.13;4.72;;;13.80;99.90;;;;;;5009901;28;20049;-67
2022/10/30 03:07:26;;;;;;;12.10;5.68;;;13.80;99.90;;;;;;5010175;28;20026;-66
2022/10/30 03:09:53;;;;;;;15.50;5.57;;;13.80;99.90;;;;;;5010437;28;20029;-67
2022/10/30 03:12:18;;;;;;;12.77;4.25;;;13.80;99.90;;;;;;5009234;28;20029;-67
2022/10/30 03:14:44;;;;;;;13.32;5.88;;;13.70;99.90;;;;;;4991470;28;20071;-67
2022/10/30 03:17:10;;;;;;;11.52;5.47;;;13.70;99.90;;;;;;5009894;28;20443;-67
2022/10/30 03:19:35;;;;;;;17.08;5.05;;;13.70;99.90;;;;;;5010579;28;20029;-67
2022/10/30 03:22:01;;;;;;;13.38;5.93;;;13.70;99.90;;;;;;5011159;28;20026;-67
2022/10/30 03:24:27;;;;;;;14.32;5.28;;;13.70;99.90;;;;;;5010848;28;20437;-66
2022/10/30 03:26:52;;;;;;;19.38;5.40;;;13.70;99.90;;;;;;5011930;28;20033;-67
2022/10/30 03:29:18;;;;;;;18.55;5.82;;;13.60;99.90;;;;;;5009715;28;20524;-67
2022/10/30 03:31:43;;;;;;;11.40;5.95;;;13.60;99.90;;;;;;5016637;28;20453;-66
2022/10/30 03:34:09;;;;;;;16.00;6.63;;;13.50;99.90;;;;;;5010634;28;20029;-67
2022/10/30 03:36:34;;;;;;;8.88;5.28;;;13.50;99.90;;;;;;5010269;28;20022;-67
2022/10/30 03:39:00;;;;;;;12.48;5.38;;;13.50;99.90;;;;;;5004103;28;20490;-66
2022/10/30 03:41:25;;;;;;;12.85;5.05;;;13.50;99.90;;;;;;5009440;28;20026;-66
2022/10/30 03:43:51;;;;;;;15.48;5.07;;;13.40;99.90;;;;;;5009714;28;20044;-67
2022/10/30 03:46:16;;;;;;;13.02;5.93;;;13.40;99.90;;;;;;5010475;28;20026;-67
2022/10/30 03:48:42;;;;;;;19.63;6.55;;;13.30;99.90;;;;;;5009498;28;20883;-67
2022/10/30 03:51:08;;;;;;;17.85;6.00;;;13.30;99.90;;;;;;5007855;28;20042;-67
2022/10/30 03:53:33;;;;;;;16.27;5.53;;;13.30;99.90;;;;;;4991804;28;20077;-66
2022/10/30 03:56:02;;;;;;;15.43;5.93;;;13.20;99.90;;;;;;5009529;28;20037;-68
2022/10/30 03:58:28;;;;;;;14.85;5.88;;;13.20;99.90;;;;;;5009615;28;20030;-67
2022/10/30 04:00:54;;;;;;;13.13;4.80;;;13.00;99.90;;;;;;5006230;28;20034;-67
2022/10/30 04:03:20;;;;;;;17.13;5.47;;;12.90;99.90;;;;;;5006414;28;20036;-67
2022/10/30 04:05:49;;;;;;;8.95;5.25;;;12.90;99.90;;;;;;5010064;28;20100;-67
2022/10/30 04:08:15;;;;;;;11.52;6.03;;;12.90;99.90;;;;;;4992510;28;20026;-67
2022/10/30 04:10:45;;;;;;;17.40;5.93;;;12.80;99.90;;;;;;5004291;28;20156;-67
2022/10/30 04:13:13;;;;;;;9.27;5.60;;;12.90;99.90;;;;;;5010515;28;20370;-66
2022/10/30 04:15:39;;;;;;;14.30;5.60;;;12.90;99.90;;;;;;5007903;28;20036;-67
2022/10/30 04:18:04;;;;;;;16.42;6.38;;;12.90;99.90;;;;;;5008250;28;20014;-66
2022/10/30 04:20:30;;;;;;;12.38;5.82;;;12.80;99.90;;;;;;5008247;28;20018;-66
2022/10/30 04:22:56;;;;;;;13.70;4.68;;;12.80;99.90;;;;;;5007304;28;20069;-66
2022/10/30 04:25:22;;;;;;;11.00;4.85;;;12.80;99.90;;;;;;4999417;28;20030;-66
2022/10/30 04:27:48;;;;;;;17.20;7.20;;;12.70;99.90;;;;;;5010368;28;20045;-66
2022/10/30 04:30:14;;;;;;;9.07;5.35;;;12.70;99.90;;;;;;5009462;28;20038;-65
2022/10/30 04:32:47;;;;;;;15.60;5.72;;;12.70;99.90;;;;;;4996140;28;20370;-66
2022/10/30 04:35:14;;;;;;;15.55;5.32;;;12.70;99.90;;;;;;4989908;28;20084;-66
2022/10/30 04:37:41;;;;;;;15.30;5.90;;;12.70;99.90;;;;;;4999033;28;20480;-67
2022/10/30 04:40:07;;;;;;;16.13;6.18;;;12.70;99.90;;;;;;4990363;28;20045;-66
2022/10/30 04:42:33;;;;;;;17.23;5.10;;;12.70;99.90;;;;;;5009902;28;20033;-68
2022/10/30 04:45:01;;;;;;;15.25;5.50;;;12.70;99.90;;;;;;5006872;28;20520;-67
2022/10/30 04:47:27;;;;;;;9.75;5.15;;;12.70;99.90;;;;;;5005396;28;20034;-67
2022/10/30 04:49:53;;;;;;;11.95;6.28;;;12.60;99.90;;;;;;5007839;28;20030;-67
2022/10/30 04:52:19;;;;;;;16.75;6.43;;;12.60;99.90;;;;;;5008337;28;20046;-67
2022/10/30 04:54:44;;;;;;;9.68;4.70;;;12.60;99.90;;;;;;4991489;28;20061;-66
2022/10/30 04:57:10;;;;;;;15.93;6.53;;;12.50;99.90;;;;;;4990815;28;20018;-66
2022/10/30 04:59:35;;;;;;;11.95;5.55;;;12.50;99.90;;;;;;5006168;28;20152;-67
2022/10/30 05:02:01;;;;;;;10.05;4.95;;;12.40;99.90;;;;;;4994847;28;20473;-67
2022/10/30 05:04:27;;;;;;;19.77;5.70;;;12.40;99.90;;;;;;4984560;28;20038;-66
2022/10/30 05:06:52;;;;;;;17.10;5.60;;;12.40;99.90;;;;;;5009696;28;20073;-66
2022/10/30 05:09:18;;;;;;;10.77;5.68;;;12.40;99.90;;;;;;4995714;28;20041;-66
2022/10/30 05:11:43;;;;;;;19.90;5.85;;;12.30;99.90;;;;;;5008546;28;20030;-67
2022/10/30 05:14:09;;;;;;;12.55;5.65;;;12.30;99.90;;;;;;5007140;28;20113;-66
2022/10/30 05:16:34;;;;;;;16.15;6.28;;;12.30;99.90;;;;;;5003235;28;20030;-67
2022/10/30 05:19:00;;;;;;;16.50;6.25;;;12.20;99.90;;;;;;4986947;28;20045;-66
2022/10/30 05:21:25;;;;;;;11.02;5.38;;;12.20;99.90;;;;;;5005711;28;20022;-67
2022/10/30 05:23:51;;;;;;;11.57;5.38;;;12.10;99.90;;;;;;5007196;28;20029;-66
2022/10/30 05:26:17;;;;;;;12.43;5.50;;;12.00;99.90;;;;;;4990455;28;20584;-66
2022/10/30 05:28:42;;;;;;;11.00;5.18;;;12.00;99.90;;;;;;4984380;28;20105;-66
2022/10/30 05:31:08;;;;;;;15.32;4.95;;;11.90;99.90;;;;;;5006148;28;20044;-66
2022/10/30 05:33:33;;;;;;;21.35;6.80;;;12.00;99.90;;;;;;4996858;28;20117;-67
2022/10/30 05:35:59;;;;;;;21.77;6.40;;;12.00;99.90;;;;;;5008750;28;20034;-66
2022/10/30 05:38:24;;;;;;;12.38;5.47;;;12.00;99.90;;;;;;5007604;28;20025;-66
2022/10/30 05:40:50;;;;;;;14.00;6.45;;;11.90;99.90;;;;;;5006865;28;20018;-66
2022/10/30 05:43:16;;;;;;;20.13;7.07;;;11.80;99.90;;;;;;5009683;28;20044;-70
2022/10/30 05:45:41;;;;;;;9.20;5.38;;;11.70;99.90;;;;;;5008638;28;20038;-66
2022/10/30 05:48:07;;;;;;;12.60;5.70;;;11.70;99.90;;;;;;5008821;28;20042;-66
2022/10/30 05:50:33;;;;;;;13.38;6.22;;;11.60;99.90;;;;;;5007478;28;20038;-66
2022/10/30 05:53:01;;;;;;;13.05;6.10;;;11.60;99.90;;;;;;5006603;28;20040;-67
2022/10/30 05:55:27;;;;;;;22.20;7.22;;;11.50;99.90;;;;;;5008002;28;20145;-66
2022/10/30 05:57:56;;;;;;;9.32;5.53;;;11.50;99.90;;;;;;5006828;28;20107;-67
2022/10/30 06:00:22;;;;;;;14.65;6.35;;;11.50;99.90;;;;;;5007331;28;20022;-66
2022/10/30 06:02:48;;;;;;;15.98;5.90;;;11.50;99.90;;;;;;5009882;28;20030;-66
2022/10/30 06:05:13;;;;;;;17.00;7.85;;;11.50;99.90;;;;;;5011663;28;20029;-67
2022/10/30 06:07:39;;;;;;;17.10;6.57;;;11.50;99.90;;;;;;5011888;28;20026;-66
2022/10/30 06:10:05;;;;;;;30.35;6.50;;;11.50;99.90;;;;;;5011368;28;20029;-66
2022/10/30 06:12:30;;;;;;;14.20;7.57;;;11.60;99.90;;;;;;5010234;28;20420;-66
2022/10/30 06:14:56;;;;;;;21.80;6.80;;;11.60;99.90;;;;;;5011387;28;20030;-66
2022/10/30 06:17:22;;;;;;;11.88;6.50;;;11.60;99.90;;;;;;5010623;28;20018;-66
2022/10/30 06:19:47;;;;;;;16.55;5.72;;;11.70;99.90;;;;;;5012396;28;20080;-65
2022/10/30 06:22:13;;;;;;;18.25;6.82;;;11.70;99.90;;;;;;5011117;28;22019;-66
2022/10/30 06:24:38;;;;;;;15.88;7.10;;;11.60;99.90;;;;;;5009561;28;20105;-66
2022/10/30 06:27:04;;;;;;;13.00;5.80;;;11.60;99.90;;;;;;5009815;28;20068;-66
2022/10/30 06:29:29;;;;;;;12.38;7.22;;;11.60;99.90;;;;;;5011915;28;20033;-65
2022/10/30 06:31:55;;;;;;;15.32;6.13;;;11.60;99.90;;;;;;5011858;28;20030;-67
2022/10/30 06:34:20;;;;;;;15.15;5.80;;;11.70;99.90;;;;;;5011637;28;20040;-67
2022/10/30 06:36:46;;;;;;;15.00;5.70;;;11.80;99.90;;;;;;5010543;28;20034;-66
2022/10/30 06:39:11;;;;;;;19.17;5.55;;;11.80;99.90;;;;;;5011064;28;20563;-67
2022/10/30 06:41:37;;;;;;;10.38;5.88;;;11.80;99.90;;;;;;5006730;28;20489;-67
2022/10/30 06:44:03;;;;;;;14.25;6.18;;;11.90;99.90;;;;;;5012296;28;20485;-67
2022/10/30 06:46:28;;;;;;;19.10;6.10;;;11.90;99.90;;;;;;5011297;28;20030;-66
2022/10/30 06:48:54;;;;;;;10.45;6.57;;;11.90;99.90;;;;;;5011156;28;20109;-66
2022/10/30 06:51:20;;;;;;;13.50;5.20;;;11.90;99.90;;;;;;5009632;28;20026;-66
2022/10/30 06:53:45;;;;;;;10.45;4.90;;;12.00;99.90;;;;;;4993807;28;20393;-67
2022/10/30 06:56:11;;;;;;;12.45;6.20;;;12.10;99.90;;;;;;5010292;28;20022;-66
2022/10/30 06:58:38;;;;;;;10.25;6.07;;;12.30;99.90;;;;;;5009435;28;20029;-66
2022/10/30 07:01:07;;;;;;;8.27;5.47;;;12.30;99.90;;;;;;5009547;28;20118;-67
2022/10/30 07:03:33;;;;;;;16.85;6.63;;;12.30;99.90;;;;;;5009639;28;20064;-66
2022/10/30 07:05:59;;;;;;;11.57;4.50;;;12.40;99.90;;;;;;5011123;28;20497;-67
2022/10/30 07:08:25;;;;;;;14.55;5.80;;;12.50;99.90;;;;;;5011160;28;20037;-66
2022/10/30 07:10:50;;;;;;;15.20;5.05;;;12.50;99.90;;;;;;5007712;28;20026;-66
2022/10/30 07:13:16;;;;;;;13.35;5.53;;;12.60;99.90;;;;;;5007597;28;20108;-67
2022/10/30 07:15:42;;;;;;;12.25;5.30;;;12.70;99.90;;;;;;5009437;28;20504;-67
2022/10/30 07:18:09;;;;;;;14.48;6.32;;;12.80;99.90;;;;;;5010256;28;20033;-67
2022/10/30 07:20:35;;;;;;;15.45;5.30;;;12.80;99.90;;;;;;5008602;28;20582;-66
2022/10/30 07:23:01;;;;;;;14.35;5.47;;;12.90;99.90;;;;;;5009595;28;20164;-67
2022/10/30 07:25:27;;;;;;;16.67;6.05;;;13.00;99.90;;;;;;5008798;28;20038;-67
2022/10/30 07:27:54;;;;;;;11.98;5.78;;;13.20;99.90;;;;;;5010728;28;20045;-66
2022/10/30 07:30:22;;;;;;;9.95;5.50;;;13.30;99.90;;;;;;5008324;28;20128;-67
2022/10/30 07:33:03;;;;;;;23.90;5.45;;;13.40;99.90;;;;;;5009871;28;20536;-66
2022/10/30 07:35:29;;;;;;;13.35;4.70;;;13.60;99.90;;;;;;5010866;28;20524;-66
2022/10/30 07:37:55;;;;;;;9.63;4.90;;;13.80;99.90;;;;;;5016302;28;20718;-66
2022/10/30 07:40:21;;;;;;;11.50;4.75;;;13.90;99.90;;;;;;5008658;28;20026;-66
2022/10/30 07:42:47;;;;;;;14.65;6.00;;;14.00;99.90;;;;;;5009790;28;20064;-67
2022/10/30 07:45:12;;;;;;;9.80;4.38;;;14.10;99.90;;;;;;5008580;28;20038;-66
2022/10/30 07:47:42;;;;;;;12.90;5.15;;;14.10;99.90;;;;;;5010649;28;20053;-66
2022/10/30 07:50:08;;;;;;;12.10;5.15;;;14.10;99.90;;;;;;5006115;28;20034;-67
2022/10/30 07:52:34;;;;;;;15.88;5.75;;;14.10;99.90;;;;;;5006751;28;20481;-67
2022/10/30 07:54:59;;;;;;;18.02;5.10;;;14.10;99.90;;;;;;4991285;28;20042;-66
2022/10/30 07:57:25;;;;;;;15.32;5.88;;;14.10;99.90;;;;;;5010269;28;20481;-66
2022/10/30 07:59:50;;;;;;;14.95;5.55;;;13.90;99.90;;;;;;5008760;28;20034;-67
2022/10/30 08:02:16;;;;;;;11.38;5.07;;;13.80;99.90;;;;;;5010394;28;20064;-67
2022/10/30 08:04:41;;;;;;;12.25;4.93;;;13.80;99.90;;;;;;5009831;28;20389;-66
2022/10/30 08:07:08;;;;;;;14.07;6.72;;;13.90;99.90;;;;;;5012499;28;20109;-66
2022/10/30 08:09:33;;;;;;;14.63;7.15;;;13.90;99.90;;;;;;4992183;28;20076;-66
2022/10/30 08:11:59;;;;;;;15.65;4.90;;;14.00;99.90;;;;;;5008846;28;20421;-66
2022/10/30 08:14:25;;;;;;;11.43;5.68;;;14.00;99.90;;;;;;5009029;28;20054;-67
2022/10/30 08:16:50;;;;;;;9.98;5.20;;;13.90;99.90;;;;;;5010843;28;20038;-66
2022/10/30 08:19:16;;;;;;;12.32;5.03;;;14.00;99.90;;;;;;5011489;28;20714;-67
2022/10/30 08:21:42;;;;;;;11.18;4.45;;;14.00;99.90;;;;;;5010529;28;20097;-67
2022/10/30 08:24:07;;;;;;;15.30;5.05;;;14.10;99.90;;;;;;5008463;28;20397;-66
2022/10/30 08:26:34;;;;;;;11.70;5.18;;;14.30;99.90;;;;;;5008598;28;20049;-66
2022/10/30 08:29:00;;;;;;;19.50;6.18;;;14.40;99.90;;;;;;5007301;28;20145;-66
2022/10/30 08:31:25;;;;;;;12.15;5.28;;;14.40;99.90;;;;;;5012341;28;20425;-66
2022/10/30 08:33:51;;;;;;;10.73;4.95;;;14.50;99.90;;;;;;5008925;28;20030;-66
2022/10/30 08:36:16;;;;;;;11.52;4.88;;;14.60;99.90;;;;;;5008884;28;20032;-66
2022/10/30 08:38:42;;;;;;;12.30;5.53;;;14.60;99.90;;;;;;5008288;28;20092;-66
2022/10/30 08:41:07;;;;;;;21.75;5.85;;;14.60;99.90;;;;;;5009819;28;20118;-66
2022/10/30 08:43:33;;;;;;;27.40;5.07;;;14.70;99.90;;;;;;5007216;28;20030;-67
2022/10/30 08:45:59;;;;;;;17.33;5.18;;;14.80;99.90;;;;;;5005285;28;20500;-67
2022/10/30 08:48:24;;;;;;;10.43;4.57;;;15.00;99.90;;;;;;5007289;28;20036;-67
2022/10/30 08:50:50;;;;;;;11.32;6.38;;;15.10;99.90;;;;;;5009306;28;20030;-66
2022/10/30 08:53:15;;;;;;;12.77;4.55;;;15.20;99.90;;;;;;5008233;28;20052;-67
2022/10/30 08:55:41;;;;;;;19.40;4.55;;;15.30;99.90;;;;;;4993155;28;20071;-67
2022/10/30 08:58:07;;;;;;;10.32;4.03;;;15.40;99.90;;;;;;5007955;28;20030;-66
2022/10/30 09:00:34;;;;;;;13.52;5.18;;;15.40;99.90;;;;;;5008085;28;20485;-67
2022/10/30 09:02:59;;;;;;;12.48;4.82;;;15.60;99.90;;;;;;5006218;28;20484;-66
2022/10/30 09:05:25;;;;;;;13.07;4.78;;;15.70;99.90;;;;;;5009693;28;20038;-66
2022/10/30 09:07:59;;;;;;;11.25;4.38;;;15.80;99.90;;;;;;5007180;28;20033;-67
2022/10/30 09:10:26;;;;;;;11.45;4.65;;;15.90;99.90;;;;;;5007990;28;20073;-66
2022/10/30 09:12:57;;;;;;;10.15;4.60;;;16.10;99.90;;;;;;5009793;28;20022;-67
2022/10/30 09:15:23;;;;;;;10.27;5.28;;;16.30;99.90;;;;;;5009636;28;20029;-67
2022/10/30 09:17:55;;;;;;;10.38;4.03;;;16.60;99.90;;;;;;5009037;28;20048;-67
2022/10/30 09:20:20;;;;;;;9.90;3.92;;;16.90;99.90;;;;;;5006512;28;20481;-66
2022/10/30 09:22:46;;;;;;;10.25;4.68;;;17.00;99.90;;;;;;5008436;28;20037;-67
2022/10/30 09:25:11;;;;;;;10.50;4.20;;;17.20;99.90;;;;;;5010316;28;20109;-67
2022/10/30 09:27:38;;;;;;;17.67;4.63;;;17.50;99.90;;;;;;5006610;28;20068;-67
2022/10/30 09:30:04;;;;;;;9.70;3.47;;;17.70;99.90;;;;;;5007609;28;20034;-67
2022/10/30 09:32:30;;;;;;;7.53;3.88;;;18.00;99.90;;;;;;5008347;28;20069;-67
2022/10/30 09:34:55;;;;;;;13.43;4.30;;;18.30;99.90;;;;;;5010753;28;20426;-67
2022/10/30 09:37:23;;;;;;;8.85;3.60;;;18.50;99.90;;;;;;5008426;28;20028;-67
2022/10/30 09:39:48;;;;;;;12.77;4.30;;;18.70;99.90;;;;;;5007282;28;20108;-67
2022/10/30 09:42:23;;;;;;;11.02;3.63;;;18.90;99.90;;;;;;5011964;28;20034;-67
2022/10/30 09:44:57;;;;;;;10.52;3.63;;;19.10;99.90;;;;;;5013944;28;20476;-67
2022/10/30 09:47:33;;;;;;;15.77;3.97;;;19.10;99.90;;;;;;5009750;28;20046;-67
2022/10/30 09:50:10;;;;;;;11.95;4.30;;;19.30;99.90;;;;;;4995248;28;20026;-67
2022/10/30 09:53:10;;;;;;;19.30;3.97;;;19.20;99.90;;;;;;5011300;28;20033;-67
2022/10/30 09:55:44;;;;;;;10.00;3.75;;;19.20;99.90;;;;;;4996338;28;20506;-67
2022/10/30 09:58:26;;;;;;;11.85;3.30;;;19.10;99.90;;;;;;5009323;28;20038;-67
2022/10/30 10:01:12;;;;;;;12.02;3.92;;;19.10;99.90;;;;;;5012609;28;20482;-66
2022/10/30 10:04:04;;;;;;;8.15;3.38;;;19.00;99.90;;;;;;5010094;28;20034;-66
2022/10/30 10:06:32;;;;;;;13.02;3.75;;;19.00;99.90;;;;;;5010895;28;20037;-67
2022/10/30 10:09:15;;;;;;;11.65;3.42;;;19.10;99.90;;;;;;5009859;28;20072;-67
2022/10/30 10:11:46;;;;;;;17.08;4.00;;;19.00;99.90;;;;;;5005057;28;20516;-66
2022/10/30 10:14:23;;;;;;;7.85;3.42;;;19.10;99.90;;;;;;5012037;28;20034;-66
2022/10/30 10:16:52;;;;;;;8.68;3.42;;;19.10;99.90;;;;;;4997260;28;20034;-66
2022/10/30 10:19:40;;;;;;;9.95;4.00;;;19.00;99.90;;;;;;5006536;28;20065;-66
2022/10/30 10:22:19;;;;;;;15.52;3.72;;;19.10;99.90;;;;;;5009938;28;20105;-65
2022/10/30 10:24:46;;;;;;;15.35;4.25;;;19.10;99.90;;;;;;5015047;28;20018;-66
2022/10/30 10:27:37;;;;;;;9.80;3.78;;;19.20;99.90;;;;;;5004930;28;20059;-65
2022/10/30 10:30:23;;;;;;;12.88;3.28;;;19.30;99.90;;;;;;4983039;28;20030;-66
2022/10/30 10:33:17;;;;;;;9.10;3.58;;;19.40;99.90;;;;;;5011200;28;20034;-65
2022/10/30 10:35:54;;;;;;;9.38;3.50;;;19.50;99.90;;;;;;5010789;28;20057;-66
2022/10/30 10:38:43;;;;;;;11.65;3.08;;;19.60;99.90;;;;;;5004321;28;20884;-66
2022/10/30 10:41:51;;;;;;;9.05;3.55;;;19.70;99.90;;;;;;5009956;28;20061;-66
2022/10/30 10:44:41;;;;;;;12.68;4.00;;;19.80;99.90;;;;;;5007880;28;20026;-66
2022/10/30 10:47:17;;;;;;;10.05;4.20;;;19.80;99.90;;;;;;5010535;28;20030;-65
2022/10/30 10:49:59;;;;;;;10.05;3.85;;;19.90;99.90;;;;;;5006347;28;20032;-66
2022/10/30 10:52:40;;;;;;;9.07;3.05;;;20.00;99.90;;;;;;5010144;28;20041;-66
2022/10/30 10:55:16;;;;;;;10.88;3.97;;;20.20;99.90;;;;;;4991343;28;20125;-66
2022/10/30 10:57:42;;;;;;;8.93;2.75;;;20.20;99.90;;;;;;5009188;28;20022;-66
2022/10/30 11:00:29;;;;;;;14.43;3.70;;;20.30;99.90;;;;;;5009036;28;20116;-64
2022/10/30 11:03:02;;;;;;;10.50;2.85;;;20.40;99.90;;;;;;5005694;28;20030;-66
2022/10/30 11:05:33;;;;;;;;;;;20.40;99.90;;;;;;5012772;28;20112;-65
2022/10/30 11:08:14;;;;;;;11.50;2.90;;;20.40;99.90;;;;;;5010774;28;19914;-65
2022/10/30 11:10:39;;;;;;;9.70;2.92;;;20.50;99.90;;;;;;5004268;28;20053;-65
2022/10/30 11:13:05;;;;;;;11.63;3.42;;;20.50;99.90;;;;;;4993358;28;20034;-65
2022/10/30 11:15:49;;;;;;;13.13;4.00;;;20.50;99.90;;;;;;5012525;28;20026;-66
2022/10/30 11:18:15;;;;;;;11.02;3.30;;;20.60;99.90;;;;;;5003323;28;20030;-66
2022/10/30 11:20:58;;;;;;;13.93;2.97;;;20.50;99.90;;;;;;5011969;28;20029;-67
2022/10/30 11:23:34;;;;;;;15.70;3.55;;;20.60;99.90;;;;;;5009635;28;20099;-66
2022/10/30 11:26:03;;;;;;;9.27;3.35;;;20.70;99.90;;;;;;5011949;28;20564;-66
2022/10/30 11:28:44;;;;;;;10.13;2.80;;;20.70;99.90;;;;;;5010129;28;20052;-66
2022/10/30 11:31:26;;;;;;;7.43;3.05;;;20.80;99.90;;;;;;5010903;28;20026;-66
2022/10/30 11:33:52;;;;;;;12.57;3.92;;;20.80;99.90;;;;;;5008166;28;20026;-66
2022/10/30 11:36:22;;;;;;;13.55;2.83;;;20.80;99.90;;;;;;5008813;28;20076;-66
2022/10/30 11:38:47;;;;;;;12.52;4.18;;;20.80;99.90;;;;;;5007857;28;20097;-67
2022/10/30 11:41:14;;;;;;;11.30;2.90;;;20.80;99.90;;;;;;5006202;28;20100;-66
2022/10/30 11:43:42;;;;;;;13.07;3.45;;;20.80;99.90;;;;;;5012816;28;20056;-66
2022/10/30 11:46:10;;;;;;;6.47;3.22;;;20.70;99.90;;;;;;5009585;28;20022;-66
2022/10/30 11:48:39;;;;;;;9.45;3.42;;;20.70;99.90;;;;;;5011257;28;20026;-67
2022/10/30 11:51:05;;;;;;;7.20;3.05;;;20.70;99.90;;;;;;5009638;28;20065;-66
2022/10/30 11:53:37;;;;;;;11.85;3.60;;;20.70;99.90;;;;;;5002452;28;20026;-67
2022/10/30 11:56:11;;;;;;;12.32;3.30;;;20.60;99.90;;;;;;4989370;28;20092;-66
2022/10/30 11:58:44;;;;;;;10.02;3.20;;;20.70;99.90;;;;;;5004769;28;20033;-67
2022/10/30 12:01:20;;;;;;;11.85;3.80;;;20.70;99.90;;;;;;4996257;28;20382;-66
2022/10/30 12:03:45;;;;;;;13.68;3.33;;;20.80;99.90;;;;;;5005911;28;20470;-66
2022/10/30 12:06:26;;;;;;;14.35;3.22;;;20.80;99.90;;;;;;5003007;28;20030;-66
2022/10/30 12:09:09;;;;;;;9.82;2.85;;;20.90;99.90;;;;;;4999292;28;20026;-66
2022/10/30 12:11:36;;;;;;;5.88;3.00;;;20.90;99.90;;;;;;5006334;28;20057;-65
2022/10/30 12:14:02;;;;;;;17.80;3.63;;;21.00;99.90;;;;;;5008155;28;20059;-66
2022/10/30 12:16:29;;;;;;;10.13;3.08;;;21.00;99.90;;;;;;5006344;28;20068;-66
2022/10/30 12:19:02;;;;;;;8.20;2.63;;;21.00;99.90;;;;;;5005336;28;20512;-66
2022/10/30 12:21:34;;;;;;;13.02;3.72;;;21.10;99.90;;;;;;4996271;28;20033;-67
2022/10/30 12:24:05;;;;;;;12.65;3.08;;;21.10;99.90;;;;;;5007684;28;20386;-66
2022/10/30 12:26:33;;;;;;;9.23;2.60;;;21.20;99.90;;;;;;5000878;28;20525;-67
2022/10/30 12:29:02;;;;;;;5.85;2.63;;;21.20;99.90;;;;;;5000777;28;20057;-66
2022/10/30 12:31:48;;;;;;;5.40;2.88;;;21.30;99.90;;;;;;5001587;28;20030;-66
2022/10/30 12:34:28;;;;;;;8.02;2.60;;;21.30;99.90;;;;;;5004829;28;20037;-66
2022/10/30 12:37:03;;;;;;;8.30;2.33;;;21.30;98.90;;;;;;5004704;28;20061;-65
2022/10/30 12:39:35;;;;;;;9.40;3.70;;;21.40;99.30;;;;;;5007010;28;20137;-65
2022/10/30 12:42:16;;;;;;;6.70;2.55;;;21.40;98.70;;;;;;5008232;28;20033;-67
2022/10/30 12:44:47;;;;;;;11.93;3.22;;;21.40;98.50;;;;;;5004697;28;20048;-66
2022/10/30 12:47:25;;;;;;;7.28;2.55;;;21.30;98.40;;;;;;5004645;28;20517;-66
2022/10/30 12:49:55;;;;;;;6.65;2.75;;;21.40;98.20;;;;;;5005229;28;20108;-66